createdAt,value
2023-11-16T00:00:14.203Z,101418.50
2023-11-16T00:02:46.711Z,101419.22
2023-11-16T00:05:18.703Z,101409.47
2023-11-16T00:07:50.993Z,101419.22
2023-11-16T00:10:25.606Z,101414.72
2023-11-16T00:12:57.612Z,101416.59
2023-11-16T00:15:33.295Z,101421.16
2023-11-16T00:18:06.519Z,101422.84
2023-11-16T00:20:38.715Z,101428.09
2023-11-16T00:23:10.921Z,101436.91
2023-11-16T00:25:43.084Z,101425.47
2023-11-16T00:28:15.986Z,101429.88
2023-11-16T00:30:48.311Z,101408.53
2023-11-16T00:33:20.394Z,101412.34
2023-11-16T00:35:52.850Z,101413.25
2023-11-16T00:38:28.522Z,101409.63
2023-11-16T00:41:01.945Z,101401.75
2023-11-16T00:43:36.403Z,101409.72
2023-11-16T00:46:10.349Z,101400.72
2023-11-16T00:48:43.474Z,101401.56
2023-11-16T00:51:15.772Z,101399.91
2023-11-16T00:53:49.904Z,101400.66
2023-11-16T00:56:23.103Z,101404.03
2023-11-16T00:58:56.922Z,101409.19
2023-11-16T01:01:30.879Z,101407.53
2023-11-16T01:04:04.643Z,101404.63
2023-11-16T01:06:37.762Z,101409.19
2023-11-16T01:09:10.152Z,101408.38
2023-11-16T01:11:42.627Z,101410.09
2023-11-16T01:14:17.810Z,101410.16
2023-11-16T01:16:52.812Z,101415.41
2023-11-16T01:19:27.563Z,101409.19
2023-11-16T01:22:01.873Z,101405.53
2023-11-16T01:24:36.753Z,101400.06
2023-11-16T01:27:16.882Z,101384.03
2023-11-16T01:29:48.909Z,101382.03
2023-11-16T01:32:20.920Z,101399.09
2023-11-16T01:34:54.179Z,101402.69
2023-11-16T01:37:26.250Z,101404.50
2023-11-16T01:39:58.517Z,101402.63
2023-11-16T01:42:30.554Z,101398.97
2023-11-16T01:45:02.704Z,101403.31
2023-11-16T01:47:36.337Z,101406.69
2023-11-16T01:50:09.222Z,101404.88
2023-11-16T01:52:41.181Z,101403.91
2023-11-16T01:55:13.188Z,101410.78
2023-11-16T01:57:45.215Z,101403.75
2023-11-16T02:00:17.829Z,101412.59
2023-11-16T02:02:51.058Z,101406.22
2023-11-16T02:05:23.536Z,101410.56
2023-11-16T02:07:55.487Z,101405.25
2023-11-16T02:10:31.288Z,101405.94
2023-11-16T02:13:06.625Z,101399.88
2023-11-16T02:15:38.981Z,101410.13
2023-11-16T02:18:15.039Z,101404.06
2023-11-16T02:20:47.655Z,101397.00
2023-11-16T02:23:19.850Z,101400.69
2023-11-16T02:25:57.702Z,101395.44
2023-11-16T02:28:31.798Z,101394.53
2023-11-16T02:31:04.154Z,101397.91
2023-11-16T02:33:36.131Z,101401.22
2023-11-16T02:36:11.896Z,101398.59
2023-11-16T02:38:44.371Z,101392.53
2023-11-16T02:41:16.345Z,101395.06
2023-11-16T02:43:50.049Z,101390.66
2023-11-16T02:46:22.504Z,101398.53
2023-11-16T02:48:54.711Z,101395.81
2023-11-16T02:51:27.029Z,101391.38
2023-11-16T02:54:03.482Z,101393.81
2023-11-16T02:56:36.085Z,101395.91
2023-11-16T02:59:08.376Z,101388.09
2023-11-16T03:01:40.348Z,101389.91
2023-11-16T03:04:12.564Z,101379.56
2023-11-16T03:06:44.601Z,101384.81
2023-11-16T03:09:17.764Z,101378.59
2023-11-16T03:11:49.922Z,101383.00
2023-11-16T03:14:21.959Z,101377.75
2023-11-16T03:16:57.083Z,101380.22
2023-11-16T03:19:29.036Z,101376.84
2023-11-16T03:22:04.263Z,101370.88
2023-11-16T03:24:36.170Z,101369.22
2023-11-16T03:27:10.873Z,101363.06
2023-11-16T03:29:44.037Z,101370.13
2023-11-16T03:32:16.810Z,101371.03
2023-11-16T03:34:50.111Z,101364.88
2023-11-16T03:37:22.214Z,101368.47
2023-11-16T03:39:54.212Z,101371.16
2023-11-16T03:42:26.251Z,101369.50
2023-11-16T03:44:58.223Z,101365.97
2023-11-16T03:47:30.575Z,101372.97
2023-11-16T03:50:05.374Z,101380.00
2023-11-16T03:52:37.505Z,101368.41
2023-11-16T03:55:09.519Z,101372.97
2023-11-16T03:57:41.716Z,101365.31
2023-11-16T04:00:15.062Z,101368.69
2023-11-16T04:02:47.095Z,101358.97
2023-11-16T04:05:19.829Z,101355.03
2023-11-16T04:07:51.856Z,101363.06
2023-11-16T04:10:24.418Z,101362.09
2023-11-16T04:12:56.456Z,101338.50
2023-11-16T04:15:30.284Z,101362.09
2023-11-16T04:18:03.649Z,101357.75
2023-11-16T04:20:37.369Z,101364.84
2023-11-16T04:23:09.340Z,101356.91
2023-11-16T04:25:42.259Z,101357.66
2023-11-16T04:28:14.477Z,101358.56
2023-11-16T04:30:47.001Z,101354.94
2023-11-16T04:33:19.223Z,101356.72
2023-11-16T04:35:53.484Z,101354.09
2023-11-16T04:38:28.966Z,101356.63
2023-11-16T04:41:00.984Z,101360.91
2023-11-16T04:43:34.268Z,101366.06
2023-11-16T04:46:07.256Z,101366.22
2023-11-16T04:48:48.325Z,101370.63
2023-11-16T04:51:22.027Z,101372.44
2023-11-16T04:53:54.067Z,101368.97
2023-11-16T04:56:26.041Z,101363.72
2023-11-16T04:58:58.049Z,101360.97
2023-11-16T05:01:30.569Z,101344.13
2023-11-16T05:04:03.976Z,101348.66
2023-11-16T05:06:42.355Z,101345.22
2023-11-16T05:09:15.032Z,101349.66
2023-11-16T05:11:47.006Z,101349.72
2023-11-16T05:14:20.712Z,101354.94
2023-11-16T05:16:52.719Z,101353.19
2023-11-16T05:19:25.245Z,101353.91
2023-11-16T05:21:57.484Z,101354.75
2023-11-16T05:24:29.649Z,101343.09
2023-11-16T05:27:03.749Z,101352.66
2023-11-16T05:29:35.784Z,101359.78
2023-11-16T05:32:08.098Z,101351.91
2023-11-16T05:34:41.076Z,101352.94
2023-11-16T05:37:13.869Z,101338.88
2023-11-16T05:39:45.999Z,101327.13
2023-11-16T05:42:18.433Z,101333.41
2023-11-16T05:44:50.502Z,101332.50
2023-11-16T05:47:22.512Z,101332.66
2023-11-16T05:49:54.508Z,101329.13
2023-11-16T05:52:27.656Z,101327.41
2023-11-16T05:54:59.987Z,101328.16
2023-11-16T05:57:32.135Z,101307.72
2023-11-16T06:00:08.549Z,101322.00
2023-11-16T06:02:41.040Z,101304.06
2023-11-16T06:05:16.285Z,101323.38
2023-11-16T06:07:48.584Z,101318.75
2023-11-16T06:10:21.156Z,101321.13
2023-11-16T06:12:53.126Z,101319.50
2023-11-16T06:15:26.517Z,101315.22
2023-11-16T06:18:02.702Z,101318.88
2023-11-16T06:20:35.335Z,101307.63
2023-11-16T06:23:07.966Z,101311.25
2023-11-16T06:25:40.312Z,101311.25
2023-11-16T06:28:12.296Z,101308.63
2023-11-16T06:30:45.034Z,101297.13
2023-11-16T06:33:17.159Z,101303.38
2023-11-16T06:35:49.548Z,101307.84
2023-11-16T06:38:21.547Z,101296.47
2023-11-16T06:40:53.693Z,101287.94
2023-11-16T06:43:26.926Z,101284.50
2023-11-16T06:46:01.334Z,101285.16
2023-11-16T06:48:34.028Z,101286.81
2023-11-16T06:51:09.498Z,101274.53
2023-11-16T06:53:44.230Z,101268.53
2023-11-16T06:56:16.268Z,101257.22
2023-11-16T06:58:48.466Z,101255.56
2023-11-16T07:01:20.764Z,101247.69
2023-11-16T07:03:53.041Z,101248.03
2023-11-16T07:06:25.285Z,101240.84
2023-11-16T07:08:57.299Z,101242.31
2023-11-16T07:11:29.302Z,101242.41
2023-11-16T07:14:01.786Z,101237.97
2023-11-16T07:16:34.374Z,101233.63
2023-11-16T07:19:07.495Z,101231.75
2023-11-16T07:21:40.036Z,101224.72
2023-11-16T07:24:12.761Z,101229.16
2023-11-16T07:26:44.898Z,101232.72
2023-11-16T07:29:19.147Z,101234.44
2023-11-16T07:31:51.235Z,101232.59
2023-11-16T07:34:25.359Z,101233.50
2023-11-16T07:36:57.396Z,101218.66
2023-11-16T07:39:29.491Z,101224.03
2023-11-16T07:42:02.100Z,101220.66
2023-11-16T07:44:34.550Z,101212.00
2023-11-16T07:47:10.147Z,101213.69
2023-11-16T07:49:42.359Z,101203.06
2023-11-16T07:52:14.499Z,101196.28
2023-11-16T07:54:47.117Z,101197.31
2023-11-16T07:57:23.835Z,101199.25
2023-11-16T08:00:00.965Z,101196.63
2023-11-16T08:02:52.929Z,101193.94
2023-11-16T08:05:27.735Z,101183.44
2023-11-16T08:07:59.786Z,101173.16
2023-11-16T08:10:31.837Z,101184.69
2023-11-16T08:13:03.876Z,101175.88
2023-11-16T08:15:36.025Z,101183.91
2023-11-16T08:18:09.623Z,101183.00
2023-11-16T08:20:42.704Z,101185.72
2023-11-16T08:23:14.943Z,101188.41
2023-11-16T08:25:49.032Z,101185.94
2023-11-16T08:28:21.081Z,101182.44
2023-11-16T08:30:54.550Z,101177.22
2023-11-16T08:33:30.521Z,101182.53
2023-11-16T08:36:02.871Z,101169.22
2023-11-16T08:38:39.700Z,101167.69
2023-11-16T08:41:11.773Z,101162.38
2023-11-16T08:43:51.652Z,101176.66
2023-11-16T08:46:26.415Z,101169.63
2023-11-16T08:49:00.537Z,101164.44
2023-11-16T08:51:34.758Z,101157.47
2023-11-16T08:54:10.178Z,101161.81
2023-11-16T08:56:44.513Z,101158.34
2023-11-16T08:59:19.026Z,101166.22
2023-11-16T09:01:51.239Z,101160.16
2023-11-16T09:04:25.577Z,101160.28
2023-11-16T09:06:59.713Z,101151.44
2023-11-16T09:09:37.996Z,101152.34
2023-11-16T09:12:14.545Z,101151.53
2023-11-16T09:14:47.332Z,101151.53
2023-11-16T09:17:19.764Z,101149.03
2023-11-16T09:19:53.387Z,101148.19
2023-11-16T09:22:25.548Z,101152.47
2023-11-16T09:25:01.698Z,101163.88
2023-11-16T09:27:39.586Z,101162.84
2023-11-16T09:30:15.836Z,101160.22
2023-11-16T09:32:47.959Z,101151.38
2023-11-16T09:35:23.164Z,101146.84
2023-11-16T09:37:57.043Z,101145.38
2023-11-16T09:40:32.117Z,101146.28
2023-11-16T09:43:26.426Z,101142.75
2023-11-16T09:46:02.224Z,101140.94
2023-11-16T09:48:40.684Z,101135.69
2023-11-16T09:51:13.344Z,101138.41
2023-11-16T09:53:47.329Z,101129.72
2023-11-16T09:56:36.202Z,101119.22
2023-11-16T09:59:18.635Z,101108.84
2023-11-16T10:02:00.616Z,101111.63
2023-11-16T10:04:34.772Z,101089.81
2023-11-16T10:07:08.941Z,101091.63
2023-11-16T10:09:44.862Z,101092.66
2023-11-16T10:12:17.555Z,101087.16
2023-11-16T10:14:53.062Z,101091.75
2023-11-16T10:17:26.605Z,101091.88
2023-11-16T10:19:58.809Z,101093.59
2023-11-16T10:22:30.805Z,101084.06
2023-11-16T10:25:03.132Z,101093.59
2023-11-16T10:27:35.200Z,101085.59
2023-11-16T10:30:13.058Z,101084.66
2023-11-16T10:32:48.376Z,101076.69
2023-11-16T10:35:24.705Z,101073.25
2023-11-16T10:37:58.461Z,101074.91
2023-11-16T10:40:30.689Z,101067.91
2023-11-16T10:43:02.687Z,101059.94
2023-11-16T10:45:36.185Z,101063.53
2023-11-16T10:48:08.478Z,101068.16
2023-11-16T10:50:44.723Z,101057.50
2023-11-16T10:53:23.959Z,101055.03
2023-11-16T10:55:57.257Z,101043.81
2023-11-16T10:58:30.716Z,101029.81
2023-11-16T11:01:03.813Z,101034.13
2023-11-16T11:03:40.340Z,101040.28
2023-11-16T11:06:29.656Z,101030.47
2023-11-16T11:09:01.817Z,101033.31
2023-11-16T11:11:36.819Z,101024.66
2023-11-16T11:14:11.972Z,101024.75
2023-11-16T11:16:43.977Z,101014.34
2023-11-16T11:19:27.516Z,101007.28
2023-11-16T11:22:02.487Z,101001.91
2023-11-16T11:24:46.792Z,101000.13
2023-11-16T11:27:18.961Z,100993.03
2023-11-16T11:29:50.980Z,100980.81
2023-11-16T11:32:34.851Z,100986.81
2023-11-16T11:35:12.999Z,100971.06
2023-11-16T11:37:44.973Z,100964.16
2023-11-16T11:40:25.354Z,100960.72
2023-11-16T11:42:57.426Z,100950.31
2023-11-16T11:45:30.499Z,100943.28
2023-11-16T11:48:07.311Z,100941.56
2023-11-16T11:50:39.451Z,100935.34
2023-11-16T11:53:17.964Z,100924.78
2023-11-16T11:55:50.037Z,100920.38
2023-11-16T11:58:22.826Z,100915.78
2023-11-16T12:00:57.959Z,100893.78
2023-11-16T12:03:30.347Z,100893.78
2023-11-16T12:06:04.788Z,100881.50
2023-11-16T12:08:44.975Z,100868.25
2023-11-16T12:11:19.735Z,100863.72
2023-11-16T12:13:52.510Z,100863.00
2023-11-16T12:16:27.785Z,100864.75
2023-11-16T12:18:59.888Z,100864.84
2023-11-16T12:21:31.955Z,100859.59
2023-11-16T12:24:09.939Z,100854.31
2023-11-16T12:26:42.084Z,100847.94
2023-11-16T12:29:24.107Z,100847.34
2023-11-16T12:31:56.596Z,100825.75
2023-11-16T12:34:28.767Z,100856.16
2023-11-16T12:37:02.637Z,100853.47
2023-11-16T12:39:34.755Z,100853.22
2023-11-16T12:42:11.062Z,100849.69
2023-11-16T12:44:45.165Z,100846.09
2023-11-16T12:47:22.236Z,100845.97
2023-11-16T12:49:56.061Z,100841.69
2023-11-16T12:52:28.741Z,100836.47
2023-11-16T12:55:00.910Z,100834.97
2023-11-16T12:57:32.957Z,100833.31
2023-11-16T13:00:10.182Z,100837.72
2023-11-16T13:02:42.210Z,100828.09
2023-11-16T13:05:16.366Z,100823.56
2023-11-16T13:07:48.784Z,100817.28
2023-11-16T13:10:20.978Z,100821.53
2023-11-16T13:12:53.077Z,100814.50
2023-11-16T13:15:25.195Z,100816.34
2023-11-16T13:17:57.285Z,100811.94
2023-11-16T13:20:29.293Z,100811.94
2023-11-16T13:23:01.344Z,100802.34
2023-11-16T13:25:33.731Z,100805.00
2023-11-16T13:28:06.301Z,100800.66
2023-11-16T13:30:40.135Z,100795.41
2023-11-16T13:33:14.134Z,100797.31
2023-11-16T13:35:46.225Z,100792.78
2023-11-16T13:38:18.269Z,100799.81
2023-11-16T13:40:50.717Z,100800.66
2023-11-16T13:43:22.907Z,100791.84
2023-11-16T13:45:55.093Z,100805.78
2023-11-16T13:48:27.234Z,100798.72
2023-11-16T13:50:59.207Z,100791.75
2023-11-16T13:53:31.172Z,100789.94
2023-11-16T13:56:04.292Z,100793.72
2023-11-16T13:58:36.952Z,100789.22
2023-11-16T14:01:13.857Z,100803.38
2023-11-16T14:03:45.955Z,100806.91
2023-11-16T14:06:17.988Z,100804.34
2023-11-16T14:08:49.988Z,100801.56
2023-11-16T14:11:22.009Z,100807.59
2023-11-16T14:13:54.041Z,100805.72
2023-11-16T14:16:26.080Z,100807.59
2023-11-16T14:18:58.498Z,100810.22
2023-11-16T14:21:30.584Z,100810.22
2023-11-16T14:24:07.484Z,100807.59
2023-11-16T14:26:42.781Z,100804.00
2023-11-16T14:29:14.740Z,100803.09
2023-11-16T14:31:47.012Z,100806.59
2023-11-16T14:34:19.024Z,100793.16
2023-11-16T14:36:51.414Z,100804.84
2023-11-16T14:39:24.128Z,100814.59
2023-11-16T14:41:56.139Z,100819.97
2023-11-16T14:44:29.302Z,100814.72
2023-11-16T14:47:04.487Z,100814.59
2023-11-16T14:49:43.235Z,100824.16
2023-11-16T14:52:15.390Z,100819.50
2023-11-16T14:54:48.539Z,100825.84
2023-11-16T14:57:20.995Z,100835.47
2023-11-16T14:59:52.998Z,100835.53
2023-11-16T15:02:24.962Z,100829.31
2023-11-16T15:05:05.056Z,100834.56
2023-11-16T15:07:41.425Z,100834.53
2023-11-16T15:10:14.043Z,100822.22
2023-11-16T15:12:46.187Z,100824.69
2023-11-16T15:15:18.263Z,100821.19
2023-11-16T15:17:50.341Z,100830.00
2023-11-16T15:20:27.332Z,100832.56
2023-11-16T15:23:00.251Z,100828.22
2023-11-16T15:25:32.393Z,100847.53
2023-11-16T15:28:04.754Z,100840.59
2023-11-16T15:30:36.826Z,100840.59
2023-11-16T15:33:10.125Z,100844.06
2023-11-16T15:35:44.404Z,100839.72
2023-11-16T15:38:16.389Z,100846.63
2023-11-16T15:40:48.899Z,100850.88
2023-11-16T15:43:20.972Z,100850.75
2023-11-16T15:45:53.606Z,100845.50
2023-11-16T15:48:25.737Z,100848.97
2023-11-16T15:50:58.323Z,100845.41
2023-11-16T15:53:30.296Z,100848.72
2023-11-16T15:56:06.919Z,100847.41
2023-11-16T15:58:39.134Z,100855.09
2023-11-16T16:01:11.185Z,100850.78
2023-11-16T16:03:43.394Z,100846.44
2023-11-16T16:06:18.952Z,100826.66
2023-11-16T16:08:52.531Z,100848.97
2023-11-16T16:11:28.440Z,100853.50
2023-11-16T16:14:00.782Z,100850.75
2023-11-16T16:16:33.636Z,100856.00
2023-11-16T16:19:05.761Z,100850.75
2023-11-16T16:21:37.787Z,100858.56
2023-11-16T16:24:09.843Z,100863.78
2023-11-16T16:26:42.054Z,100867.28
2023-11-16T16:29:14.669Z,100869.94
2023-11-16T16:31:46.795Z,100869.94
2023-11-16T16:34:18.844Z,100875.31
2023-11-16T16:36:52.154Z,100867.44
2023-11-16T16:39:24.688Z,100868.41
2023-11-16T16:41:59.193Z,100867.50
2023-11-16T16:44:32.339Z,100866.63
2023-11-16T16:47:06.200Z,100878.03
2023-11-16T16:49:38.274Z,100872.78
2023-11-16T16:52:11.836Z,100871.06
2023-11-16T16:54:43.914Z,100881.53
2023-11-16T16:57:16.377Z,100884.16
2023-11-16T16:59:50.361Z,100891.03
2023-11-16T17:02:23.155Z,100882.34
2023-11-16T17:04:55.524Z,100890.94
2023-11-16T17:07:27.526Z,100890.94
2023-11-16T17:09:59.607Z,100900.63
2023-11-16T17:12:32.448Z,100900.59
2023-11-16T17:15:06.488Z,100907.59
2023-11-16T17:17:38.798Z,100896.94
2023-11-16T17:20:15.110Z,100896.88
2023-11-16T17:22:47.531Z,100906.72
2023-11-16T17:25:19.513Z,100908.47
2023-11-16T17:27:51.590Z,100926.69
2023-11-16T17:30:23.650Z,100930.03
2023-11-16T17:32:55.849Z,100932.66
2023-11-16T17:35:27.973Z,100938.84
2023-11-16T17:37:59.978Z,100922.97
2023-11-16T17:40:31.998Z,100937.00
2023-11-16T17:43:04.137Z,100934.28
2023-11-16T17:45:36.689Z,100937.91
2023-11-16T17:48:09.009Z,100945.69
2023-11-16T17:50:41.158Z,100949.09
2023-11-16T17:53:13.203Z,100951.72
2023-11-16T17:55:45.157Z,100947.16
2023-11-16T17:58:19.009Z,100948.97
2023-11-16T18:00:51.699Z,100956.84
2023-11-16T18:03:23.758Z,100955.94
2023-11-16T18:05:56.585Z,100951.47
2023-11-16T18:08:31.472Z,100951.47
2023-11-16T18:11:03.832Z,100959.25
2023-11-16T18:13:36.028Z,100965.41
2023-11-16T18:16:08.931Z,100960.03
2023-11-16T18:18:42.049Z,100955.47
2023-11-16T18:21:14.870Z,100952.81
2023-11-16T18:23:47.522Z,100961.44
2023-11-16T18:26:20.073Z,100974.50
2023-11-16T18:28:55.875Z,100976.22
2023-11-16T18:31:27.975Z,100977.16
2023-11-16T18:34:04.700Z,100978.84
2023-11-16T18:36:36.712Z,100979.72
2023-11-16T18:39:08.848Z,100984.06
2023-11-16T18:41:40.823Z,100987.66
2023-11-16T18:44:12.759Z,100996.38
2023-11-16T18:46:45.006Z,100987.53
2023-11-16T18:49:17.049Z,100984.84
2023-11-16T18:51:52.201Z,100994.44
2023-11-16T18:54:24.217Z,100990.84
2023-11-16T18:56:56.936Z,100997.09
2023-11-16T18:59:29.791Z,100996.25
2023-11-16T19:02:02.042Z,101001.47
2023-11-16T19:04:35.772Z,101010.16
2023-11-16T19:07:08.420Z,101017.22
2023-11-16T19:09:40.793Z,101021.59
2023-11-16T19:12:13.393Z,101032.94
2023-11-16T19:14:45.354Z,101032.78
2023-11-16T19:17:19.544Z,101037.16
2023-11-16T19:19:54.493Z,101045.88
2023-11-16T19:22:27.198Z,101052.09
2023-11-16T19:24:59.272Z,101052.94
2023-11-16T19:27:33.158Z,101056.53
2023-11-16T19:30:07.085Z,101057.22
2023-11-16T19:32:40.190Z,101052.88
2023-11-16T19:35:12.278Z,101058.16
2023-11-16T19:37:44.515Z,101058.16
2023-11-16T19:40:26.533Z,101055.41
2023-11-16T19:43:08.598Z,101058.13
2023-11-16T19:45:41.683Z,101066.84
2023-11-16T19:48:13.860Z,101078.19
2023-11-16T19:50:47.655Z,101078.09
2023-11-16T19:53:20.983Z,101083.44
2023-11-16T19:55:54.426Z,101090.31
2023-11-16T19:58:27.931Z,101092.88
2023-11-16T20:01:00.172Z,101096.53
2023-11-16T20:03:34.563Z,101089.50
2023-11-16T20:06:07.529Z,101102.72
2023-11-16T20:08:39.694Z,101114.13
2023-11-16T20:11:12.623Z,101109.66
2023-11-16T20:13:46.648Z,101118.31
2023-11-16T20:16:20.158Z,101113.91
2023-11-16T20:18:52.443Z,101101.34
2023-11-16T20:21:26.327Z,101125.94
2023-11-16T20:23:58.669Z,101123.16
2023-11-16T20:26:31.955Z,101119.56
2023-11-16T20:29:06.362Z,101119.56
2023-11-16T20:31:39.854Z,101115.00
2023-11-16T20:34:14.710Z,101133.50
2023-11-16T20:36:46.739Z,101135.16
2023-11-16T20:39:22.190Z,101127.25
2023-11-16T20:41:57.294Z,101134.19
2023-11-16T20:44:30.724Z,101132.25
2023-11-16T20:47:03.014Z,101135.69
2023-11-16T20:49:35.827Z,101134.75
2023-11-16T20:52:07.824Z,101140.03
2023-11-16T20:54:40.907Z,101141.75
2023-11-16T20:57:12.962Z,101139.09
2023-11-16T20:59:45.005Z,101138.94
2023-11-16T21:02:18.627Z,101142.38
2023-11-16T21:04:50.846Z,101143.16
2023-11-16T21:07:24.148Z,101154.44
2023-11-16T21:09:56.513Z,101148.31
2023-11-16T21:12:28.730Z,101151.69
2023-11-16T21:15:02.517Z,101162.97
2023-11-16T21:17:35.198Z,101162.03
2023-11-16T21:20:10.510Z,101167.13
2023-11-16T21:22:44.393Z,101172.50
2023-11-16T21:25:16.760Z,101174.97
2023-11-16T21:27:49.170Z,101181.94
2023-11-16T21:30:21.132Z,101194.22
2023-11-16T21:32:53.275Z,101188.91
2023-11-16T21:35:27.329Z,101199.38
2023-11-16T21:37:59.409Z,101207.22
2023-11-16T21:40:32.314Z,101207.84
2023-11-16T21:43:07.209Z,101212.03
2023-11-16T21:45:41.134Z,101218.84
2023-11-16T21:48:13.638Z,101222.22
2023-11-16T21:50:45.650Z,101217.81
2023-11-16T21:53:20.015Z,101221.31
2023-11-16T21:55:52.117Z,101227.09
2023-11-16T21:58:24.421Z,101229.81
2023-11-16T22:00:56.596Z,101237.75
2023-11-16T22:03:28.717Z,101235.97
2023-11-16T22:06:00.842Z,101241.09
2023-11-16T22:08:33.168Z,101246.28
2023-11-16T22:11:05.647Z,101247.75
2023-11-16T22:13:38.745Z,101251.19
2023-11-16T22:16:10.822Z,101259.19
2023-11-16T22:18:42.915Z,101254.81
2023-11-16T22:21:14.929Z,101265.34
2023-11-16T22:23:47.080Z,101263.47
2023-11-16T22:26:19.092Z,101264.22
2023-11-16T22:28:52.830Z,101276.56
2023-11-16T22:31:25.192Z,101271.19
2023-11-16T22:33:57.279Z,101275.59
2023-11-16T22:36:30.769Z,101278.94
2023-11-16T22:39:03.769Z,101282.31
2023-11-16T22:41:36.401Z,101287.53
2023-11-16T22:44:08.395Z,101283.97
2023-11-16T22:46:40.406Z,101292.63
2023-11-16T22:49:12.409Z,101303.00
2023-11-16T22:51:44.408Z,101314.19
2023-11-16T22:54:16.407Z,101321.78
2023-11-16T22:56:48.430Z,101333.06
2023-11-16T22:59:20.611Z,101335.63
2023-11-16T23:01:52.642Z,101337.31
2023-11-16T23:04:24.813Z,101331.09
2023-11-16T23:06:57.554Z,101340.59
2023-11-16T23:09:29.765Z,101341.41
2023-11-16T23:12:01.699Z,101344.88
2023-11-16T23:14:37.845Z,101341.34
2023-11-16T23:17:10.617Z,101346.50
2023-11-16T23:19:44.024Z,101357.75
2023-11-16T23:22:16.027Z,101357.75
2023-11-16T23:24:48.050Z,101370.78
2023-11-16T23:27:22.601Z,101378.53
2023-11-16T23:29:54.714Z,101381.00
2023-11-16T23:32:26.717Z,101380.03
2023-11-16T23:35:01.266Z,101388.53
2023-11-16T23:37:33.642Z,101393.75
2023-11-16T23:40:07.144Z,101401.63
2023-11-16T23:42:43.776Z,101404.06
2023-11-16T23:45:16.751Z,101416.19
2023-11-16T23:47:49.344Z,101417.72
2023-11-16T23:50:21.424Z,101415.81
2023-11-16T23:52:53.514Z,101412.13
2023-11-16T23:55:25.503Z,101418.91
2023-11-16T23:57:57.544Z,101422.38
